sensor_id;sensor_type;location;lat;lon;timestamp;pressure;altitude;pressure_sealevel;temperature;humidity
56582;BME280;42463;52.214;21.238;2022-08-19T01:28:07;100052.70;;;23.70;61.96
56582;BME280;42463;52.214;21.238;2022-08-19T01:30:36;100055.52;;;23.69;61.76
56582;BME280;42463;52.214;21.238;2022-08-19T01:33:04;100050.48;;;23.67;61.87
56582;BME280;42463;52.214;21.238;2022-08-19T01:35:32;100048.97;;;23.67;61.98
56582;BME280;42463;52.214;21.238;2022-08-19T01:38:02;100047.04;;;23.66;61.82
56582;BME280;42463;52.214;21.238;2022-08-19T01:40:35;100049.28;;;23.64;61.92
56582;BME280;42463;52.214;21.238;2022-08-19T01:43:04;100048.23;;;23.63;62.15
56582;BME280;42463;52.214;21.238;2022-08-19T01:45:34;100050.63;;;23.62;62.05
56582;BME280;42463;52.214;21.238;2022-08-19T01:48:02;100052.84;;;23.59;61.95
56582;BME280;42463;52.214;21.238;2022-08-19T01:50:30;100053.60;;;23.58;61.97
56582;BME280;42463;52.214;21.238;2022-08-19T01:52:57;100053.45;;;23.58;62.09
56582;BME280;42463;52.214;21.238;2022-08-19T01:55:25;100053.20;;;23.58;62.11
56582;BME280;42463;52.214;21.238;2022-08-19T01:57:56;100053.48;;;23.56;62.11
56582;BME280;42463;52.214;21.238;2022-08-19T02:00:27;100054.79;;;23.55;62.10
56582;BME280;42463;52.214;21.238;2022-08-19T02:02:55;100053.29;;;23.55;62.13
56582;BME280;42463;52.214;21.238;2022-08-19T02:05:23;100050.84;;;23.55;61.99
56582;BME280;42463;52.214;21.238;2022-08-19T02:07:50;100050.23;;;23.55;62.07
56582;BME280;42463;52.214;21.238;2022-08-19T02:10:20;100049.42;;;23.55;62.16
56582;BME280;42463;52.214;21.238;2022-08-19T02:12:47;100047.69;;;23.55;62.42
56582;BME280;42463;52.214;21.238;2022-08-19T02:15:15;100040.67;;;23.56;62.08
56582;BME280;42463;52.214;21.238;2022-08-19T02:17:44;100038.77;;;23.56;62.10
56582;BME280;42463;52.214;21.238;2022-08-19T02:20:13;100032.93;;;23.55;62.03
56582;BME280;42463;52.214;21.238;2022-08-19T02:22:41;100033.45;;;23.54;62.24
56582;BME280;42463;52.214;21.238;2022-08-19T02:25:25;100035.14;;;23.52;62.16
56582;BME280;42463;52.214;21.238;2022-08-19T02:27:52;100029.42;;;23.49;62.21
56582;BME280;42463;52.214;21.238;2022-08-19T02:30:20;100026.66;;;23.47;62.20
56582;BME280;42463;52.214;21.238;2022-08-19T02:32:46;100030.23;;;23.45;62.38
56582;BME280;42463;52.214;21.238;2022-08-19T02:35:14;100023.79;;;23.43;62.39
56582;BME280;42463;52.214;21.238;2022-08-19T02:37:40;100021.37;;;23.41;62.61
56582;BME280;42463;52.214;21.238;2022-08-19T02:40:24;100027.13;;;23.41;62.41
56582;BME280;42463;52.214;21.238;2022-08-19T02:42:51;100028.86;;;23.41;62.52
56582;BME280;42463;52.214;21.238;2022-08-19T02:45:17;100028.80;;;23.41;62.53
56582;BME280;42463;52.214;21.238;2022-08-19T02:47:45;100028.50;;;23.42;62.68
56582;BME280;42463;52.214;21.238;2022-08-19T02:50:12;100032.77;;;23.42;62.39
56582;BME280;42463;52.214;21.238;2022-08-19T02:52:40;100033.39;;;23.42;62.69
56582;BME280;42463;52.214;21.238;2022-08-19T02:55:09;100035.19;;;23.41;62.48
56582;BME280;42463;52.214;21.238;2022-08-19T02:57:35;100034.49;;;23.39;62.27
56582;BME280;42463;52.214;21.238;2022-08-19T03:00:06;100029.41;;;23.38;62.60
56582;BME280;42463;52.214;21.238;2022-08-19T03:02:32;100030.77;;;23.36;62.48
56582;BME280;42463;52.214;21.238;2022-08-19T03:04:59;100031.05;;;23.35;62.40
56582;BME280;42463;52.214;21.238;2022-08-19T03:07:26;100034.67;;;23.34;62.64
56582;BME280;42463;52.214;21.238;2022-08-19T03:09:53;100033.73;;;23.34;62.60
56582;BME280;42463;52.214;21.238;2022-08-19T03:12:20;100034.86;;;23.35;62.60
56582;BME280;42463;52.214;21.238;2022-08-19T03:14:47;100031.70;;;23.35;62.48
56582;BME280;42463;52.214;21.238;2022-08-19T03:17:14;100034.30;;;23.35;62.59
56582;BME280;42463;52.214;21.238;2022-08-19T03:19:41;100035.02;;;23.35;62.70
56582;BME280;42463;52.214;21.238;2022-08-19T03:22:07;100035.34;;;23.35;62.50
56582;BME280;42463;52.214;21.238;2022-08-19T03:24:34;100033.81;;;23.35;62.47
56582;BME280;42463;52.214;21.238;2022-08-19T03:27:01;100029.02;;;23.33;62.45
56582;BME280;42463;52.214;21.238;2022-08-19T03:29:31;100027.69;;;23.31;62.57
56582;BME280;42463;52.214;21.238;2022-08-19T03:31:59;100027.23;;;23.29;62.52
56582;BME280;42463;52.214;21.238;2022-08-19T03:34:30;100026.98;;;23.28;62.70
56582;BME280;42463;52.214;21.238;2022-08-19T03:36:58;100030.44;;;23.28;62.77
56582;BME280;42463;52.214;21.238;2022-08-19T03:39:26;100032.02;;;23.27;62.64
56582;BME280;42463;52.214;21.238;2022-08-19T03:41:54;100029.86;;;23.27;62.81
56582;BME280;42463;52.214;21.238;2022-08-19T03:44:24;100026.13;;;23.26;62.78
56582;BME280;42463;52.214;21.238;2022-08-19T03:46:53;100022.33;;;23.26;62.69
56582;BME280;42463;52.214;21.238;2022-08-19T03:49:21;100023.20;;;23.26;62.88
56582;BME280;42463;52.214;21.238;2022-08-19T03:51:50;100026.66;;;23.26;62.71
56582;BME280;42463;52.214;21.238;2022-08-19T03:54:20;100036.96;;;23.27;63.05
56582;BME280;42463;52.214;21.238;2022-08-19T03:56:50;100040.66;;;23.28;62.97
56582;BME280;42463;52.214;21.238;2022-08-19T03:59:23;100044.95;;;23.29;62.92
56582;BME280;42463;52.214;21.238;2022-08-19T04:01:50;100047.09;;;23.29;63.15
56582;BME280;42463;52.214;21.238;2022-08-19T04:04:16;100047.77;;;23.30;62.97
56582;BME280;42463;52.214;21.238;2022-08-19T04:06:44;100047.48;;;23.31;62.89
56582;BME280;42463;52.214;21.238;2022-08-19T04:09:13;100046.63;;;23.32;62.92
56582;BME280;42463;52.214;21.238;2022-08-19T04:11:42;100049.05;;;23.34;62.95
56582;BME280;42463;52.214;21.238;2022-08-19T04:14:11;100048.27;;;23.36;63.03
56582;BME280;42463;52.214;21.238;2022-08-19T04:16:39;100049.66;;;23.38;63.18
56582;BME280;42463;52.214;21.238;2022-08-19T04:19:07;100046.99;;;23.42;63.01
56582;BME280;42463;52.214;21.238;2022-08-19T04:21:35;100044.41;;;23.45;63.12
56582;BME280;42463;52.214;21.238;2022-08-19T04:24:02;100047.70;;;23.49;63.07
56582;BME280;42463;52.214;21.238;2022-08-19T04:26:33;100044.71;;;23.52;62.91
56582;BME280;42463;52.214;21.238;2022-08-19T04:29:00;100048.67;;;23.54;62.91
56582;BME280;42463;52.214;21.238;2022-08-19T04:31:32;100045.92;;;23.58;63.01
56582;BME280;42463;52.214;21.238;2022-08-19T04:34:03;100045.78;;;23.61;62.75
56582;BME280;42463;52.214;21.238;2022-08-19T04:36:35;100047.76;;;23.63;62.86
56582;BME280;42463;52.214;21.238;2022-08-19T04:39:06;100043.46;;;23.65;62.63
56582;BME280;42463;52.214;21.238;2022-08-19T04:41:34;100050.23;;;23.67;62.83
56582;BME280;42463;52.214;21.238;2022-08-19T04:44:18;100051.42;;;23.70;62.75
56582;BME280;42463;52.214;21.238;2022-08-19T04:46:46;100054.44;;;23.73;62.67
56582;BME280;42463;52.214;21.238;2022-08-19T04:49:12;100055.17;;;23.74;62.82
56582;BME280;42463;52.214;21.238;2022-08-19T04:51:41;100050.65;;;23.75;62.82
56582;BME280;42463;52.214;21.238;2022-08-19T04:54:10;100050.08;;;23.80;62.65
56582;BME280;42463;52.214;21.238;2022-08-19T04:56:38;100042.12;;;23.84;62.86
56582;BME280;42463;52.214;21.238;2022-08-19T04:59:06;100041.04;;;23.88;62.77
56582;BME280;42463;52.214;21.238;2022-08-19T05:01:37;100041.96;;;23.90;62.66
56582;BME280;42463;52.214;21.238;2022-08-19T05:04:07;100043.94;;;23.93;62.58
56582;BME280;42463;52.214;21.238;2022-08-19T05:06:35;100047.73;;;23.95;62.68
56582;BME280;42463;52.214;21.238;2022-08-19T05:09:05;100047.17;;;23.97;62.77
56582;BME280;42463;52.214;21.238;2022-08-19T05:11:37;100050.99;;;24.00;62.59
56582;BME280;42463;52.214;21.238;2022-08-19T05:14:06;100048.02;;;24.04;62.65
56582;BME280;42463;52.214;21.238;2022-08-19T05:16:33;100049.35;;;24.07;62.66
56582;BME280;42463;52.214;21.238;2022-08-19T05:19:01;100047.78;;;24.10;62.57
56582;BME280;42463;52.214;21.238;2022-08-19T05:21:47;100042.67;;;24.12;62.71
56582;BME280;42463;52.214;21.238;2022-08-19T05:24:31;100044.73;;;24.15;62.55
56582;BME280;42463;52.214;21.238;2022-08-19T05:27:02;100042.81;;;24.16;62.65
56582;BME280;42463;52.214;21.238;2022-08-19T05:29:32;100045.52;;;24.20;62.43
56582;BME280;42463;52.214;21.238;2022-08-19T05:32:04;100052.78;;;24.23;62.44
56582;BME280;42463;52.214;21.238;2022-08-19T05:34:35;100056.27;;;24.27;62.57
56582;BME280;42463;52.214;21.238;2022-08-19T05:37:07;100059.52;;;24.33;62.70
56582;BME280;42463;52.214;21.238;2022-08-19T05:39:37;100060.45;;;24.41;62.51
56582;BME280;42463;52.214;21.238;2022-08-19T05:42:09;100058.20;;;24.46;62.17
56582;BME280;42463;52.214;21.238;2022-08-19T05:44:42;100062.70;;;24.52;62.26
56582;BME280;42463;52.214;21.238;2022-08-19T05:47:11;100070.00;;;24.58;62.56
56582;BME280;42463;52.214;21.238;2022-08-19T05:49:43;100076.60;;;24.65;62.30
56582;BME280;42463;52.214;21.238;2022-08-19T05:52:18;100083.03;;;24.72;62.08
56582;BME280;42463;52.214;21.238;2022-08-19T05:54:49;100085.06;;;24.79;62.09
56582;BME280;42463;52.214;21.238;2022-08-19T05:57:16;100084.42;;;24.87;61.80
56582;BME280;42463;52.214;21.238;2022-08-19T05:59:43;100077.87;;;24.94;61.64
56582;BME280;42463;52.214;21.238;2022-08-19T06:02:14;100077.66;;;24.99;61.27
56582;BME280;42463;52.214;21.238;2022-08-19T06:04:41;100075.91;;;25.05;61.67
56582;BME280;42463;52.214;21.238;2022-08-19T06:07:08;100075.11;;;25.11;61.02
56582;BME280;42463;52.214;21.238;2022-08-19T06:09:36;100074.41;;;25.16;60.90
56582;BME280;42463;52.214;21.238;2022-08-19T06:12:06;100081.70;;;25.22;60.87
56582;BME280;42463;52.214;21.238;2022-08-19T06:14:36;100076.17;;;25.30;61.00
56582;BME280;42463;52.214;21.238;2022-08-19T06:17:04;100074.48;;;25.36;60.96
56582;BME280;42463;52.214;21.238;2022-08-19T06:19:33;100066.21;;;25.41;61.10
56582;BME280;42463;52.214;21.238;2022-08-19T06:22:02;100063.68;;;25.49;60.89
56582;BME280;42463;52.214;21.238;2022-08-19T06:24:32;100062.44;;;25.55;60.29
56582;BME280;42463;52.214;21.238;2022-08-19T06:27:01;100062.25;;;25.57;60.11
56582;BME280;42463;52.214;21.238;2022-08-19T06:29:29;100067.96;;;25.57;59.90
56582;BME280;42463;52.214;21.238;2022-08-19T06:32:04;100074.31;;;25.57;59.70
56582;BME280;42463;52.214;21.238;2022-08-19T06:34:33;100077.07;;;25.55;59.85
56582;BME280;42463;52.214;21.238;2022-08-19T06:37:03;100074.02;;;25.54;59.93
56582;BME280;42463;52.214;21.238;2022-08-19T06:39:33;100069.02;;;25.51;60.08
56582;BME280;42463;52.214;21.238;2022-08-19T06:42:07;100066.84;;;25.49;60.34
56582;BME280;42463;52.214;21.238;2022-08-19T06:44:40;100067.23;;;25.48;60.08
56582;BME280;42463;52.214;21.238;2022-08-19T06:47:13;100072.81;;;25.50;60.50
56582;BME280;42463;52.214;21.238;2022-08-19T06:49:40;100080.09;;;25.52;60.48
56582;BME280;42463;52.214;21.238;2022-08-19T06:52:08;100080.76;;;25.54;60.67
56582;BME280;42463;52.214;21.238;2022-08-19T06:54:37;100076.03;;;25.59;60.65
56582;BME280;42463;52.214;21.238;2022-08-19T06:57:05;100072.30;;;25.65;60.66
56582;BME280;42463;52.214;21.238;2022-08-19T06:59:34;100073.23;;;25.71;60.29
56582;BME280;42463;52.214;21.238;2022-08-19T07:02:07;100074.83;;;25.79;60.24
56582;BME280;42463;52.214;21.238;2022-08-19T07:04:36;100079.79;;;25.85;59.93
56582;BME280;42463;52.214;21.238;2022-08-19T07:07:06;100084.83;;;25.87;59.34
56582;BME280;42463;52.214;21.238;2022-08-19T07:09:37;100080.91;;;25.89;59.54
56582;BME280;42463;52.214;21.238;2022-08-19T07:12:05;100082.31;;;25.95;59.92
56582;BME280;42463;52.214;21.238;2022-08-19T07:14:32;100083.52;;;26.03;60.06
56582;BME280;42463;52.214;21.238;2022-08-19T07:17:00;100082.55;;;26.14;59.86
56582;BME280;42463;52.214;21.238;2022-08-19T07:19:30;100077.25;;;26.23;59.25
56582;BME280;42463;52.214;21.238;2022-08-19T07:22:00;100078.21;;;26.27;59.23
56582;BME280;42463;52.214;21.238;2022-08-19T07:24:28;100077.61;;;26.33;59.38
56582;BME280;42463;52.214;21.238;2022-08-19T07:26:56;100082.90;;;26.39;58.97
56582;BME280;42463;52.214;21.238;2022-08-19T07:29:26;100090.78;;;26.47;59.14
56582;BME280;42463;52.214;21.238;2022-08-19T07:31:57;100088.16;;;26.57;59.20
56582;BME280;42463;52.214;21.238;2022-08-19T07:34:27;100090.52;;;26.64;58.60
56582;BME280;42463;52.214;21.238;2022-08-19T07:36:59;100084.14;;;26.72;58.45
56582;BME280;42463;52.214;21.238;2022-08-19T07:39:32;100080.63;;;26.80;58.18
56582;BME280;42463;52.214;21.238;2022-08-19T07:42:02;100071.23;;;26.89;58.29
56582;BME280;42463;52.214;21.238;2022-08-19T07:44:36;100066.58;;;26.99;57.86
56582;BME280;42463;52.214;21.238;2022-08-19T07:47:06;100067.58;;;27.11;58.00
56582;BME280;42463;52.214;21.238;2022-08-19T07:49:34;100065.84;;;27.22;57.89
56582;BME280;42463;52.214;21.238;2022-08-19T07:52:03;100068.63;;;27.33;57.58
56582;BME280;42463;52.214;21.238;2022-08-19T07:54:33;100068.70;;;27.43;57.31
56582;BME280;42463;52.214;21.238;2022-08-19T07:57:01;100078.12;;;27.51;57.14
56582;BME280;42463;52.214;21.238;2022-08-19T07:59:29;100078.70;;;27.58;56.96
56582;BME280;42463;52.214;21.238;2022-08-19T08:01:56;100078.81;;;27.64;56.22
56582;BME280;42463;52.214;21.238;2022-08-19T08:04:26;100072.44;;;27.70;56.10
56582;BME280;42463;52.214;21.238;2022-08-19T08:07:11;100070.61;;;27.76;55.42
56582;BME280;42463;52.214;21.238;2022-08-19T08:09:55;100072.70;;;27.84;55.76
56582;BME280;42463;52.214;21.238;2022-08-19T08:12:33;100076.70;;;27.93;56.05
56582;BME280;42463;52.214;21.238;2022-08-19T08:15:05;100081.75;;;28.02;56.08
56582;BME280;42463;52.214;21.238;2022-08-19T08:17:36;100075.66;;;28.11;55.40
56582;BME280;42463;52.214;21.238;2022-08-19T08:20:07;100073.77;;;28.18;55.10
56582;BME280;42463;52.214;21.238;2022-08-19T08:22:34;100075.30;;;28.24;54.55
56582;BME280;42463;52.214;21.238;2022-08-19T08:25:22;100077.91;;;28.30;54.29
56582;BME280;42463;52.214;21.238;2022-08-19T08:27:50;100078.83;;;28.34;54.13
56582;BME280;42463;52.214;21.238;2022-08-19T08:30:22;100073.98;;;28.34;53.91
56582;BME280;42463;52.214;21.238;2022-08-19T08:32:50;100074.63;;;28.36;53.86
56582;BME280;42463;52.214;21.238;2022-08-19T08:35:19;100070.43;;;28.39;54.03
56582;BME280;42463;52.214;21.238;2022-08-19T08:37:51;100066.09;;;28.42;53.85
56582;BME280;42463;52.214;21.238;2022-08-19T08:40:23;100071.55;;;28.47;54.01
56582;BME280;42463;52.214;21.238;2022-08-19T08:42:57;100084.27;;;28.52;53.16
56582;BME280;42463;52.214;21.238;2022-08-19T08:45:28;100086.48;;;28.57;53.30
56582;BME280;42463;52.214;21.238;2022-08-19T08:48:00;100078.23;;;28.62;53.48
56582;BME280;42463;52.214;21.238;2022-08-19T08:50:34;100072.45;;;28.66;53.84
56582;BME280;42463;52.214;21.238;2022-08-19T08:53:00;100078.27;;;28.76;53.36
56582;BME280;42463;52.214;21.238;2022-08-19T08:55:30;100084.63;;;28.81;53.36
56582;BME280;42463;52.214;21.238;2022-08-19T08:58:02;100076.45;;;28.84;52.44
56582;BME280;42463;52.214;21.238;2022-08-19T09:00:33;100073.15;;;28.88;52.78
56582;BME280;42463;52.214;21.238;2022-08-19T09:03:01;100073.59;;;28.92;52.31
56582;BME280;42463;52.214;21.238;2022-08-19T09:05:40;100075.77;;;28.98;52.38
56582;BME280;42463;52.214;21.238;2022-08-19T09:08:18;100087.73;;;29.06;52.68
56582;BME280;42463;52.214;21.238;2022-08-19T09:10:53;100092.35;;;29.13;52.76
56582;BME280;42463;52.214;21.238;2022-08-19T09:13:28;100093.47;;;29.21;52.54
56582;BME280;42463;52.214;21.238;2022-08-19T09:16:03;100098.00;;;29.30;52.75
56582;BME280;42463;52.214;21.238;2022-08-19T09:18:45;100094.23;;;29.39;52.03
56582;BME280;42463;52.214;21.238;2022-08-19T09:21:17;100096.19;;;29.42;50.95
56582;BME280;42463;52.214;21.238;2022-08-19T09:23:45;100094.15;;;29.47;51.26
56582;BME280;42463;52.214;21.238;2022-08-19T09:26:15;100090.52;;;29.53;51.10
56582;BME280;42463;52.214;21.238;2022-08-19T09:28:44;100097.40;;;29.58;50.94
56582;BME280;42463;52.214;21.238;2022-08-19T09:31:11;100093.84;;;29.62;49.94
56582;BME280;42463;52.214;21.238;2022-08-19T09:33:38;100086.89;;;29.63;49.94
56582;BME280;42463;52.214;21.238;2022-08-19T09:36:13;100081.96;;;29.66;49.97
56582;BME280;42463;52.214;21.238;2022-08-19T09:38:40;100087.56;;;29.70;50.37
56582;BME280;42463;52.214;21.238;2022-08-19T09:41:12;100084.56;;;29.76;49.81
56582;BME280;42463;52.214;21.238;2022-08-19T09:43:43;100090.25;;;29.80;49.35
56582;BME280;42463;52.214;21.238;2022-08-19T09:46:12;100096.42;;;29.83;49.44
56582;BME280;42463;52.214;21.238;2022-08-19T09:48:42;100102.42;;;29.85;49.32
56582;BME280;42463;52.214;21.238;2022-08-19T09:51:12;100094.05;;;29.89;49.73
56582;BME280;42463;52.214;21.238;2022-08-19T09:53:43;100092.96;;;29.96;49.84
56582;BME280;42463;52.214;21.238;2022-08-19T09:56:12;100091.34;;;30.02;48.29
56582;BME280;42463;52.214;21.238;2022-08-19T09:58:40;100097.35;;;30.08;47.77
56582;BME280;42463;52.214;21.238;2022-08-19T10:01:07;100097.20;;;30.13;47.37
56582;BME280;42463;52.214;21.238;2022-08-19T10:03:35;100097.81;;;30.19;47.38
56582;BME280;42463;52.214;21.238;2022-08-19T10:06:06;100098.23;;;30.25;46.75
56582;BME280;42463;52.214;21.238;2022-08-19T10:08:36;100096.49;;;30.31;46.83
56582;BME280;42463;52.214;21.238;2022-08-19T10:11:06;100092.52;;;30.39;46.62
56582;BME280;42463;52.214;21.238;2022-08-19T10:13:36;100085.89;;;30.47;46.87
56582;BME280;42463;52.214;21.238;2022-08-19T10:16:08;100092.00;;;30.57;46.15
56582;BME280;42463;52.214;21.238;2022-08-19T10:18:38;100084.27;;;30.65;45.95
56582;BME280;42463;52.214;21.238;2022-08-19T10:21:11;100080.67;;;30.76;46.11
56582;BME280;42463;52.214;21.238;2022-08-19T10:23:40;100080.77;;;30.86;45.35
56582;BME280;42463;52.214;21.238;2022-08-19T10:26:13;100070.67;;;30.94;45.11
56582;BME280;42463;52.214;21.238;2022-08-19T10:28:39;100075.55;;;31.02;44.32
56582;BME280;42463;52.214;21.238;2022-08-19T10:31:14;100066.02;;;31.08;44.02
56582;BME280;42463;52.214;21.238;2022-08-19T10:33:47;100067.89;;;31.17;43.79
56582;BME280;42463;52.214;21.238;2022-08-19T10:36:19;100065.83;;;31.24;43.32
56582;BME280;42463;52.214;21.238;2022-08-19T10:38:49;100061.89;;;31.32;43.18
56582;BME280;42463;52.214;21.238;2022-08-19T10:41:18;100061.22;;;31.40;42.38
56582;BME280;42463;52.214;21.238;2022-08-19T10:43:49;100061.54;;;31.42;42.00
56582;BME280;42463;52.214;21.238;2022-08-19T10:46:18;100062.02;;;31.46;41.92
56582;BME280;42463;52.214;21.238;2022-08-19T10:48:45;100059.02;;;31.52;42.33
56582;BME280;42463;52.214;21.238;2022-08-19T10:51:14;100052.36;;;31.58;41.92
56582;BME280;42463;52.214;21.238;2022-08-19T10:53:59;100061.55;;;31.64;41.65
56582;BME280;42463;52.214;21.238;2022-08-19T10:56:26;100060.83;;;31.69;41.15
56582;BME280;42463;52.214;21.238;2022-08-19T10:59:13;100062.76;;;31.73;40.99
56582;BME280;42463;52.214;21.238;2022-08-19T11:01:41;100062.90;;;31.77;40.87
56582;BME280;42463;52.214;21.238;2022-08-19T11:04:14;100058.94;;;31.83;41.28
56582;BME280;42463;52.214;21.238;2022-08-19T11:06:45;100059.05;;;31.96;41.63
56582;BME280;42463;52.214;21.238;2022-08-19T11:09:13;100050.73;;;32.09;41.18
56582;BME280;42463;52.214;21.238;2022-08-19T11:11:41;100052.94;;;32.16;40.15
56582;BME280;42463;52.214;21.238;2022-08-19T11:14:08;100049.53;;;32.22;39.95
56582;BME280;42463;52.214;21.238;2022-08-19T11:16:35;100052.10;;;32.30;40.04
56582;BME280;42463;52.214;21.238;2022-08-19T11:19:05;100049.19;;;32.34;39.16
56582;BME280;42463;52.214;21.238;2022-08-19T11:21:35;100041.23;;;32.36;39.31
56582;BME280;42463;52.214;21.238;2022-08-19T11:24:06;100033.73;;;32.42;39.04
56582;BME280;42463;52.214;21.238;2022-08-19T11:26:41;100040.05;;;32.45;38.59
56582;BME280;42463;52.214;21.238;2022-08-19T11:29:11;100038.13;;;32.44;38.36
56582;BME280;42463;52.214;21.238;2022-08-19T11:31:40;100028.43;;;32.43;38.04
56582;BME280;42463;52.214;21.238;2022-08-19T11:34:10;100028.80;;;32.46;38.49
56582;BME280;42463;52.214;21.238;2022-08-19T11:36:39;100031.98;;;32.53;38.46
56582;BME280;42463;52.214;21.238;2022-08-19T11:39:11;100021.05;;;32.54;38.22
56582;BME280;42463;52.214;21.238;2022-08-19T11:41:39;100019.42;;;32.56;38.24
56582;BME280;42463;52.214;21.238;2022-08-19T11:44:07;100025.75;;;32.58;37.58
56582;BME280;42463;52.214;21.238;2022-08-19T11:46:35;100024.80;;;32.56;37.58
56582;BME280;42463;52.214;21.238;2022-08-19T11:49:03;100026.02;;;32.55;37.75
56582;BME280;42463;52.214;21.238;2022-08-19T11:51:33;100019.76;;;32.55;37.87
56582;BME280;42463;52.214;21.238;2022-08-19T11:54:00;100019.48;;;32.57;38.15
56582;BME280;42463;52.214;21.238;2022-08-19T11:56:29;100012.87;;;32.63;38.10
56582;BME280;42463;52.214;21.238;2022-08-19T11:58:57;100020.73;;;32.73;38.61
56582;BME280;42463;52.214;21.238;2022-08-19T12:01:25;100019.42;;;32.80;37.70
56582;BME280;42463;52.214;21.238;2022-08-19T12:03:55;100007.27;;;32.83;37.25
56582;BME280;42463;52.214;21.238;2022-08-19T12:06:31;100006.23;;;32.89;37.79
56582;BME280;42463;52.214;21.238;2022-08-19T12:09:02;99997.27;;;32.95;37.53
56582;BME280;42463;52.214;21.238;2022-08-19T12:11:29;100001.48;;;33.00;36.69
56582;BME280;42463;52.214;21.238;2022-08-19T12:13:57;99992.91;;;32.98;36.12
56582;BME280;42463;52.214;21.238;2022-08-19T12:16:28;99987.05;;;32.98;36.69
56582;BME280;42463;52.214;21.238;2022-08-19T12:18:57;99990.20;;;33.03;36.87
56582;BME280;42463;52.214;21.238;2022-08-19T12:21:29;99986.49;;;33.05;36.07
56582;BME280;42463;52.214;21.238;2022-08-19T12:24:00;99982.71;;;33.05;35.78
56582;BME280;42463;52.214;21.238;2022-08-19T12:26:30;99977.16;;;33.06;36.30
56582;BME280;42463;52.214;21.238;2022-08-19T12:28:57;99977.57;;;33.06;36.52
56582;BME280;42463;52.214;21.238;2022-08-19T12:31:25;99971.85;;;33.08;36.40
56582;BME280;42463;52.214;21.238;2022-08-19T12:33:53;99967.80;;;33.10;35.86
56582;BME280;42463;52.214;21.238;2022-08-19T12:36:21;99969.77;;;33.13;35.83
56582;BME280;42463;52.214;21.238;2022-08-19T12:38:48;99974.98;;;33.16;34.89
56582;BME280;42463;52.214;21.238;2022-08-19T12:41:20;99972.50;;;33.15;34.89
56582;BME280;42463;52.214;21.238;2022-08-19T12:43:48;99972.24;;;33.16;35.20
56582;BME280;42463;52.214;21.238;2022-08-19T12:46:15;99969.10;;;33.16;35.17
56582;BME280;42463;52.214;21.238;2022-08-19T12:48:43;99957.52;;;33.18;34.93
56582;BME280;42463;52.214;21.238;2022-08-19T12:51:14;99958.79;;;33.20;35.31
56582;BME280;42463;52.214;21.238;2022-08-19T12:53:41;99955.77;;;33.22;34.72
56582;BME280;42463;52.214;21.238;2022-08-19T12:56:11;99949.05;;;33.20;34.21
56582;BME280;42463;52.214;21.238;2022-08-19T12:58:40;99953.70;;;33.22;34.60
56582;BME280;42463;52.214;21.238;2022-08-19T13:01:13;99953.55;;;33.20;34.42
56582;BME280;42463;52.214;21.238;2022-08-19T13:03:41;99945.13;;;33.12;34.33
56582;BME280;42463;52.214;21.238;2022-08-19T13:06:09;99943.76;;;33.13;34.64
56582;BME280;42463;52.214;21.238;2022-08-19T13:08:35;99943.44;;;33.14;34.45
56582;BME280;42463;52.214;21.238;2022-08-19T13:11:14;99945.23;;;33.11;34.09
56582;BME280;42463;52.214;21.238;2022-08-19T13:13:44;99941.50;;;33.07;34.03
56582;BME280;42463;52.214;21.238;2022-08-19T13:16:14;99945.44;;;33.07;34.65
56582;BME280;42463;52.214;21.238;2022-08-19T13:18:43;99942.44;;;33.09;34.36
56582;BME280;42463;52.214;21.238;2022-08-19T13:21:12;99937.45;;;33.10;34.25
56582;BME280;42463;52.214;21.238;2022-08-19T13:23:40;99939.37;;;33.11;34.57
56582;BME280;42463;52.214;21.238;2022-08-19T13:26:10;99938.05;;;33.14;34.68
56582;BME280;42463;52.214;21.238;2022-08-19T13:28:38;99938.58;;;33.17;34.99
56582;BME280;42463;52.214;21.238;2022-08-19T13:31:21;99937.48;;;33.20;34.48
56582;BME280;42463;52.214;21.238;2022-08-19T13:34:06;99938.09;;;33.17;34.45
56582;BME280;42463;52.214;21.238;2022-08-19T13:36:34;99929.80;;;33.19;34.57
56582;BME280;42463;52.214;21.238;2022-08-19T13:39:02;99936.84;;;33.21;34.88
56582;BME280;42463;52.214;21.238;2022-08-19T13:41:29;99934.36;;;33.21;34.61
56582;BME280;42463;52.214;21.238;2022-08-19T13:43:57;99928.52;;;33.19;34.73
56582;BME280;42463;52.214;21.238;2022-08-19T13:46:23;99931.98;;;33.17;34.57
56582;BME280;42463;52.214;21.238;2022-08-19T13:48:50;99928.23;;;33.16;34.81
56582;BME280;42463;52.214;21.238;2022-08-19T13:51:18;99926.69;;;33.17;35.08
56582;BME280;42463;52.214;21.238;2022-08-19T13:53:45;99935.49;;;33.19;34.75
56582;BME280;42463;52.214;21.238;2022-08-19T13:56:15;99932.37;;;33.19;34.69
56582;BME280;42463;52.214;21.238;2022-08-19T13:58:44;99935.29;;;33.17;34.72
56582;BME280;42463;52.214;21.238;2022-08-19T14:01:17;99933.10;;;33.12;34.21
56582;BME280;42463;52.214;21.238;2022-08-19T14:03:53;99929.12;;;33.09;34.82
56582;BME280;42463;52.214;21.238;2022-08-19T14:06:21;99935.13;;;33.09;35.12
56582;BME280;42463;52.214;21.238;2022-08-19T14:08:50;99936.00;;;33.11;35.42
56582;BME280;42463;52.214;21.238;2022-08-19T14:11:18;99938.41;;;33.10;35.26
56582;BME280;42463;52.214;21.238;2022-08-19T14:13:44;99941.20;;;33.06;34.92
56582;BME280;42463;52.214;21.238;2022-08-19T14:16:15;99940.85;;;33.00;34.68
56582;BME280;42463;52.214;21.238;2022-08-19T14:18:41;99940.34;;;32.95;34.82
56582;BME280;42463;52.214;21.238;2022-08-19T14:21:16;99941.92;;;32.91;34.60
56582;BME280;42463;52.214;21.238;2022-08-19T14:23:45;99938.98;;;32.87;34.70